createdAt,value
2022-12-12T00:00:21.816Z,100220.00
2022-12-12T00:03:23.724Z,100211.69
2022-12-12T00:06:26.197Z,100216.72
2022-12-12T00:09:27.843Z,100205.13
2022-12-12T00:12:29.492Z,100206.78
2022-12-12T00:15:31.641Z,100216.13
2022-12-12T00:18:33.549Z,100217.72
2022-12-12T00:21:35.126Z,100213.53
2022-12-12T00:24:37.023Z,100221.09
2022-12-12T00:27:39.295Z,100222.78
2022-12-12T00:30:40.919Z,100211.00
2022-12-12T00:33:44.719Z,100218.56
2022-12-12T00:36:46.527Z,100219.31
2022-12-12T00:39:48.426Z,100224.28
2022-12-12T00:42:49.996Z,100226.00
2022-12-12T00:45:52.272Z,100221.78
2022-12-12T00:48:56.328Z,100226.00
2022-12-12T00:51:59.065Z,100225.09
2022-12-12T00:55:00.652Z,100223.41
2022-12-12T00:58:02.217Z,100227.69
2022-12-12T01:01:29.118Z,100231.97
2022-12-12T01:04:30.832Z,100239.41
2022-12-12T01:07:32.467Z,100240.22
2022-12-12T01:10:34.466Z,100244.38
2022-12-12T01:13:37.375Z,100246.09
2022-12-12T01:16:39.006Z,100252.84
2022-12-12T01:19:41.156Z,100256.97
2022-12-12T01:22:42.966Z,100257.06
2022-12-12T01:25:44.780Z,100253.66
2022-12-12T01:28:46.698Z,100254.47
2022-12-12T01:31:48.496Z,100257.06
2022-12-12T01:34:50.241Z,100260.47
2022-12-12T01:37:52.045Z,100262.22
2022-12-12T01:40:54.382Z,100264.69
2022-12-12T01:43:56.254Z,100258.09
2022-12-12T01:46:57.910Z,100262.25
2022-12-12T01:49:59.331Z,100263.88
2022-12-12T01:53:01.141Z,100264.75
2022-12-12T01:56:09.054Z,100261.28
2022-12-12T01:59:14.126Z,100258.03
2022-12-12T02:02:16.225Z,100256.31
2022-12-12T02:05:38.792Z,100257.19
2022-12-12T02:08:41.632Z,100260.47
2022-12-12T02:11:52.458Z,100268.16
2022-12-12T02:14:54.786Z,100259.72
2022-12-12T02:18:14.744Z,100260.69
2022-12-12T02:21:54.834Z,100260.66
2022-12-12T02:25:53.709Z,100261.47
2022-12-12T02:29:14.076Z,100260.63
2022-12-12T02:32:33.879Z,100259.78
2022-12-12T02:35:52.493Z,100267.34
2022-12-12T02:39:18.579Z,100267.22
2022-12-12T02:42:42.133Z,100264.88
2022-12-12T02:45:56.025Z,100273.19
2022-12-12T02:49:06.348Z,100274.09
2022-12-12T02:52:09.823Z,100275.91
2022-12-12T02:55:11.969Z,100276.88
2022-12-12T02:58:14.416Z,100275.22
2022-12-12T03:01:58.983Z,100266.03
2022-12-12T03:05:37.062Z,100278.66
2022-12-12T03:09:36.067Z,100272.00
2022-12-12T03:18:40.436Z,100275.38
2022-12-12T03:22:50.336Z,100274.63
2022-12-12T03:26:34.044Z,100272.97
2022-12-12T03:29:43.778Z,100270.44
2022-12-12T03:32:45.408Z,100269.56
2022-12-12T03:35:52.769Z,100265.44
2022-12-12T03:38:59.869Z,100262.91
2022-12-12T03:42:09.443Z,100260.47
2022-12-12T03:45:23.001Z,100269.66
2022-12-12T03:48:34.864Z,100262.97
2022-12-12T03:51:41.607Z,100264.81
2022-12-12T03:54:49.728Z,100269.94
2022-12-12T03:58:09.535Z,100269.88
2022-12-12T04:01:13.011Z,100266.56
2022-12-12T04:04:20.372Z,100269.09
2022-12-12T04:07:32.868Z,100277.53
2022-12-12T04:11:08.010Z,100266.66
2022-12-12T04:14:28.409Z,100274.25
2022-12-12T04:17:38.348Z,100262.59
2022-12-12T04:21:26.579Z,100274.31
2022-12-12T04:24:50.172Z,100281.81
2022-12-12T04:27:55.563Z,100281.00
2022-12-12T04:31:03.727Z,100286.03
2022-12-12T04:34:22.218Z,100289.41
2022-12-12T04:37:32.354Z,100291.72
2022-12-12T04:40:46.860Z,100292.50
2022-12-12T04:43:50.477Z,100291.72
2022-12-12T04:46:54.748Z,100285.84
2022-12-12T04:49:59.020Z,100289.97
2022-12-12T04:53:03.395Z,100284.97
2022-12-12T04:56:12.016Z,100286.63
2022-12-12T04:59:14.197Z,100285.69
2022-12-12T05:02:39.234Z,100294.19
2022-12-12T05:05:48.668Z,100285.91
2022-12-12T05:08:53.565Z,100290.19
2022-12-12T05:11:55.672Z,100294.50
2022-12-12T05:14:57.313Z,100289.47
2022-12-12T05:18:08.611Z,100289.47
2022-12-12T05:21:10.236Z,100291.06
2022-12-12T05:24:12.025Z,100296.09
2022-12-12T05:27:13.608Z,100292.03
2022-12-12T05:30:15.665Z,100289.56
2022-12-12T05:33:17.435Z,100291.31
2022-12-12T05:36:19.858Z,100288.78
2022-12-12T05:39:22.287Z,100291.31
2022-12-12T05:42:24.107Z,100292.97
2022-12-12T05:45:26.782Z,100287.09
2022-12-12T05:48:29.030Z,100285.41
2022-12-12T05:51:33.509Z,100291.25
2022-12-12T05:54:35.574Z,100290.41
2022-12-12T05:57:37.325Z,100293.69
2022-12-12T06:00:39.366Z,100297.84
2022-12-12T06:03:41.224Z,100295.38
2022-12-12T06:06:43.483Z,100299.56
2022-12-12T06:09:45.437Z,100311.34
2022-12-12T06:12:46.952Z,100305.50
2022-12-12T06:15:48.955Z,100315.63
2022-12-12T06:18:53.393Z,100312.13
2022-12-12T06:21:55.842Z,100311.25
2022-12-12T06:24:57.763Z,100316.34
2022-12-12T06:27:59.642Z,100334.03
2022-12-12T06:31:02.778Z,100328.25
2022-12-12T06:34:06.439Z,100327.41
2022-12-12T06:37:14.104Z,100326.59
2022-12-12T06:40:19.095Z,100335.81
2022-12-12T06:43:21.020Z,100330.72
2022-12-12T06:46:26.037Z,100330.81
2022-12-12T06:49:28.003Z,100342.72
2022-12-12T06:52:31.220Z,100351.03
2022-12-12T06:55:33.501Z,100338.47
2022-12-12T06:58:35.658Z,100349.41
2022-12-12T07:01:38.165Z,100347.69
2022-12-12T07:04:40.091Z,100354.44
2022-12-12T07:07:42.096Z,100354.38
2022-12-12T07:10:44.194Z,100363.63
2022-12-12T07:13:45.930Z,100364.50
2022-12-12T07:16:48.145Z,100372.13
2022-12-12T07:19:49.845Z,100374.63
2022-12-12T07:22:51.854Z,100371.38
2022-12-12T07:25:53.789Z,100366.44
2022-12-12T07:28:55.648Z,100373.97
2022-12-12T07:31:57.434Z,100376.50
2022-12-12T07:34:59.223Z,100374.03
2022-12-12T07:38:01.097Z,100372.44
2022-12-12T07:41:08.565Z,100369.81
2022-12-12T07:44:10.254Z,100372.25
2022-12-12T07:47:12.098Z,100370.53
2022-12-12T07:50:14.083Z,100377.22
2022-12-12T07:53:16.897Z,100377.94
2022-12-12T07:56:19.998Z,100375.34
2022-12-12T07:59:21.749Z,100382.00
2022-12-12T08:02:24.231Z,100382.81
2022-12-12T08:05:26.289Z,100377.69
2022-12-12T08:08:28.271Z,100382.56
2022-12-12T08:11:29.853Z,100382.56
2022-12-12T08:14:32.153Z,100390.91
2022-12-12T08:17:33.997Z,100390.81
2022-12-12T08:20:39.372Z,100386.69
2022-12-12T08:23:42.174Z,100389.94
2022-12-12T08:26:45.167Z,100391.59
2022-12-12T08:29:46.979Z,100384.03
2022-12-12T08:32:49.126Z,100380.69
2022-12-12T08:35:50.888Z,100386.47
2022-12-12T08:38:53.589Z,100390.63
2022-12-12T08:41:56.436Z,100390.63
2022-12-12T08:44:58.364Z,100389.69
2022-12-12T08:48:00.139Z,100397.25
2022-12-12T08:51:01.992Z,100394.56
2022-12-12T08:54:03.951Z,100408.78
2022-12-12T08:57:06.454Z,100397.00
2022-12-12T09:00:09.318Z,100401.13
2022-12-12T09:03:11.487Z,100400.28
2022-12-12T09:06:14.450Z,100399.41
2022-12-12T09:09:16.198Z,100404.44
2022-12-12T09:12:17.867Z,100402.69
2022-12-12T09:15:19.978Z,100409.38
2022-12-12T09:18:22.515Z,100400.91
2022-12-12T09:21:24.205Z,100412.56
2022-12-12T09:24:26.033Z,100405.81
2022-12-12T09:27:27.653Z,100406.59
2022-12-12T09:30:29.318Z,100412.38
2022-12-12T09:33:31.133Z,100415.72
2022-12-12T09:36:32.823Z,100424.06
2022-12-12T09:39:34.573Z,100419.75
2022-12-12T09:42:46.749Z,100424.84
2022-12-12T09:45:49.130Z,100419.72
2022-12-12T09:48:52.427Z,100424.63
2022-12-12T09:51:56.193Z,100419.53
2022-12-12T09:55:00.814Z,100418.69
2022-12-12T09:58:16.267Z,100421.97
2022-12-12T10:01:39.767Z,100422.78
2022-12-12T10:05:18.748Z,100426.88
2022-12-12T10:08:38.832Z,100426.78
2022-12-12T10:11:52.138Z,100434.28
2022-12-12T10:15:05.029Z,100436.78
2022-12-12T10:18:14.698Z,100438.41
2022-12-12T10:21:23.071Z,100438.28
2022-12-12T10:24:40.053Z,100439.94
2022-12-12T10:27:41.834Z,100451.66
2022-12-12T10:31:25.754Z,100447.38
2022-12-12T10:34:55.262Z,100444.81
2022-12-12T10:38:28.451Z,100443.94
2022-12-12T10:41:44.148Z,100440.47
2022-12-12T10:44:47.462Z,100440.34
2022-12-12T10:47:49.838Z,100448.72
2022-12-12T10:50:56.314Z,100442.78
2022-12-12T10:53:58.276Z,100436.84
2022-12-12T10:57:20.965Z,100432.59
2022-12-12T11:00:42.088Z,100434.25
2022-12-12T11:03:50.922Z,100439.28
2022-12-12T11:06:56.590Z,100433.34
2022-12-12T11:10:01.856Z,100434.97
2022-12-12T11:13:10.603Z,100437.44
2022-12-12T11:16:23.337Z,100437.34
2022-12-12T11:19:27.265Z,100438.09
2022-12-12T11:22:33.080Z,100428.72
2022-12-12T11:25:36.323Z,100431.16
2022-12-12T11:28:39.751Z,100422.66
2022-12-12T11:31:44.416Z,100426.81
2022-12-12T11:34:51.012Z,100435.16
2022-12-12T11:37:59.330Z,100426.72
2022-12-12T11:41:04.993Z,100426.63
2022-12-12T11:44:25.899Z,100425.72
2022-12-12T11:47:35.938Z,100424.81
2022-12-12T11:50:45.859Z,100426.47
2022-12-12T11:53:48.168Z,100425.53
2022-12-12T11:57:06.605Z,100428.00
2022-12-12T12:00:21.212Z,100421.22
2022-12-12T12:03:50.122Z,100420.38
2022-12-12T12:07:01.246Z,100416.06
2022-12-12T12:10:24.031Z,100419.31
2022-12-12T12:14:03.757Z,100420.94
2022-12-12T12:17:32.466Z,100420.97
2022-12-12T12:20:56.774Z,100419.25
2022-12-12T12:24:33.746Z,100417.63
2022-12-12T12:28:07.865Z,100409.94
2022-12-12T12:31:21.718Z,100411.63
2022-12-12T12:35:00.717Z,100403.22
2022-12-12T12:38:16.943Z,100407.44
2022-12-12T12:41:37.206Z,100393.13
2022-12-12T12:45:16.818Z,100397.31
2022-12-12T12:48:29.251Z,100394.78
2022-12-12T12:52:01.118Z,100393.97
2022-12-12T12:55:12.163Z,100389.00
2022-12-12T12:58:30.930Z,100394.91
2022-12-12T13:01:41.081Z,100393.28
2022-12-12T13:04:59.326Z,100396.72
2022-12-12T13:08:14.490Z,100397.59
2022-12-12T13:11:26.527Z,100394.22
2022-12-12T13:14:40.963Z,100396.81
2022-12-12T13:17:54.589Z,100392.59
2022-12-12T13:21:44.416Z,100391.78
2022-12-12T13:24:56.482Z,100391.88
2022-12-12T13:28:12.037Z,100396.91
2022-12-12T13:31:43.386Z,100397.81
2022-12-12T13:34:49.770Z,100395.28
2022-12-12T13:37:54.375Z,100390.28
2022-12-12T13:41:08.409Z,100391.06
2022-12-12T13:44:36.846Z,100389.44
2022-12-12T13:47:55.458Z,100392.84
2022-12-12T13:51:28.056Z,100396.25
2022-12-12T13:54:29.891Z,100395.47
2022-12-12T13:57:32.420Z,100398.88
2022-12-12T14:00:41.605Z,100403.09
2022-12-12T14:03:46.563Z,100403.91
2022-12-12T14:07:15.330Z,100403.09
2022-12-12T14:10:38.146Z,100403.94
2022-12-12T14:13:43.262Z,100414.06
2022-12-12T14:16:53.301Z,100409.09
2022-12-12T14:19:58.776Z,100404.13
2022-12-12T14:23:13.592Z,100403.38
2022-12-12T14:26:27.579Z,100403.38
2022-12-12T14:29:32.939Z,100411.00
2022-12-12T14:32:48.634Z,100415.25
2022-12-12T14:36:37.551Z,100400.28
2022-12-12T14:39:47.935Z,100403.75
2022-12-12T14:43:18.714Z,100399.59
2022-12-12T14:46:24.362Z,100404.72
2022-12-12T14:49:26.758Z,100411.56
2022-12-12T14:52:28.653Z,100408.25
2022-12-12T14:55:30.889Z,100404.94
2022-12-12T14:58:37.802Z,100408.41
2022-12-12T15:02:05.043Z,100407.63
2022-12-12T15:05:07.893Z,100409.41
2022-12-12T15:08:19.625Z,100404.44
2022-12-12T15:11:24.872Z,100413.72
2022-12-12T15:14:28.170Z,100412.91
2022-12-12T15:17:51.182Z,100410.50
2022-12-12T15:20:57.418Z,100409.75
2022-12-12T15:23:59.717Z,100409.78
2022-12-12T15:27:01.795Z,100403.91
2022-12-12T15:30:43.349Z,100409.84
2022-12-12T15:33:47.120Z,100409.03
2022-12-12T15:36:52.108Z,100415.09
2022-12-12T15:40:17.557Z,100410.88
2022-12-12T15:43:26.046Z,100413.38
2022-12-12T15:46:28.395Z,100411.72
2022-12-12T15:49:44.812Z,100415.09
2022-12-12T15:52:59.093Z,100419.25
2022-12-12T15:56:13.188Z,100417.53
2022-12-12T15:59:17.380Z,100428.50
2022-12-12T16:02:31.566Z,100421.00
2022-12-12T16:05:37.981Z,100420.16
2022-12-12T16:08:47.096Z,100416.84
2022-12-12T16:11:56.390Z,100423.56
2022-12-12T16:15:18.903Z,100422.78
2022-12-12T16:18:24.342Z,100430.38
2022-12-12T16:21:27.564Z,100433.78
2022-12-12T16:24:29.221Z,100432.97
2022-12-12T16:27:31.007Z,100430.44
2022-12-12T16:30:33.554Z,100434.59
2022-12-12T16:33:39.135Z,100433.06
2022-12-12T16:36:42.435Z,100431.50
2022-12-12T16:39:45.390Z,100432.38
2022-12-12T16:43:09.349Z,100439.81
2022-12-12T16:46:23.993Z,100432.31
2022-12-12T16:49:26.706Z,100432.31
2022-12-12T16:52:29.296Z,100429.84
2022-12-12T16:55:31.475Z,100429.84
2022-12-12T16:58:33.675Z,100427.41
2022-12-12T17:01:38.696Z,100425.81
2022-12-12T17:04:40.508Z,100430.03
2022-12-12T17:07:42.175Z,100440.94
2022-12-12T17:10:47.025Z,100436.88
2022-12-12T17:13:50.163Z,100439.47
2022-12-12T17:16:53.511Z,100431.97
2022-12-12T17:19:55.701Z,100430.44
2022-12-12T17:22:57.625Z,100437.16
2022-12-12T17:26:04.644Z,100427.91
2022-12-12T17:29:07.755Z,100430.47
2022-12-12T17:32:12.316Z,100438.03
2022-12-12T17:35:14.318Z,100436.34
2022-12-12T17:38:16.656Z,100435.56
2022-12-12T17:41:18.425Z,100433.88
2022-12-12T17:44:20.233Z,100433.88
2022-12-12T17:47:22.178Z,100433.94
2022-12-12T17:50:24.311Z,100433.06
2022-12-12T17:53:27.377Z,100433.88
2022-12-12T17:56:29.185Z,100435.53
2022-12-12T17:59:31.227Z,100438.09
2022-12-12T18:02:33.957Z,100436.44
2022-12-12T18:05:35.989Z,100438.19
2022-12-12T18:08:38.981Z,100437.31
2022-12-12T18:11:43.524Z,100436.59
2022-12-12T18:14:45.248Z,100434.16
2022-12-12T18:17:46.996Z,100429.94
2022-12-12T18:20:49.288Z,100434.13
2022-12-12T18:23:51.963Z,100424.88
2022-12-12T18:26:57.071Z,100423.25
2022-12-12T18:29:58.721Z,100427.28
2022-12-12T18:33:03.143Z,100432.38
2022-12-12T18:36:18.415Z,100434.13
2022-12-12T18:39:20.523Z,100428.31
2022-12-12T18:42:22.246Z,100434.28
2022-12-12T18:45:24.169Z,100434.31
2022-12-12T18:48:25.893Z,100432.63
2022-12-12T18:51:28.968Z,100430.97
2022-12-12T18:54:32.741Z,100436.06
2022-12-12T18:57:34.636Z,100433.63
2022-12-12T19:00:39.874Z,100430.31
2022-12-12T19:03:42.923Z,100434.59
2022-12-12T19:06:44.893Z,100430.38
2022-12-12T19:09:47.238Z,100425.28
2022-12-12T19:12:49.145Z,100428.53
2022-12-12T19:15:51.318Z,100417.59
2022-12-12T19:18:55.862Z,100424.34
2022-12-12T19:21:57.766Z,100427.72
2022-12-12T19:24:59.558Z,100436.91
2022-12-12T19:28:01.315Z,100432.72
2022-12-12T19:31:14.967Z,100430.28
2022-12-12T19:34:17.071Z,100428.63
2022-12-12T19:37:19.643Z,100437.03
2022-12-12T19:40:21.272Z,100434.59
2022-12-12T19:43:23.204Z,100438.88
2022-12-12T19:46:27.571Z,100440.66
2022-12-12T19:49:29.299Z,100441.44
2022-12-12T19:52:30.983Z,100437.22
2022-12-12T19:55:32.710Z,100437.22
2022-12-12T19:58:38.656Z,100442.34
2022-12-12T20:01:41.688Z,100441.53
2022-12-12T20:04:43.460Z,100449.91
2022-12-12T20:07:45.358Z,100443.25
2022-12-12T20:10:47.250Z,100440.81
2022-12-12T20:13:57.458Z,100425.63
2022-12-12T20:17:02.784Z,100431.47
2022-12-12T20:20:05.107Z,100429.81
2022-12-12T20:23:08.129Z,100428.06
2022-12-12T20:26:20.799Z,100426.44
2022-12-12T20:29:23.452Z,100429.81
2022-12-12T20:32:25.449Z,100420.56
2022-12-12T20:35:27.592Z,100419.69
2022-12-12T20:38:31.773Z,100424.72
2022-12-12T20:41:38.589Z,100419.66
2022-12-12T20:44:40.119Z,100412.22
2022-12-12T20:47:44.263Z,100411.41
2022-12-12T20:50:46.382Z,100410.56
2022-12-12T20:53:51.482Z,100402.28
2022-12-12T20:56:54.642Z,100406.56
2022-12-12T20:59:56.749Z,100404.91
2022-12-12T21:02:58.669Z,100394.06
2022-12-12T21:06:00.416Z,100397.47
2022-12-12T21:09:05.890Z,100410.00
2022-12-12T21:12:07.847Z,100415.00
2022-12-12T21:15:09.803Z,100415.09
2022-12-12T21:18:11.528Z,100419.28
2022-12-12T21:21:14.031Z,100412.59
2022-12-12T21:24:17.096Z,100411.78
2022-12-12T21:27:18.997Z,100410.91
2022-12-12T21:30:20.844Z,100422.63
2022-12-12T21:33:22.701Z,100409.22
2022-12-12T21:36:24.975Z,100415.09
2022-12-12T21:39:28.889Z,100409.19
2022-12-12T21:42:30.488Z,100399.97
2022-12-12T21:45:32.699Z,100412.47
2022-12-12T21:48:34.383Z,100404.91
2022-12-12T21:51:36.221Z,100411.63
2022-12-12T21:54:38.254Z,100419.97
2022-12-12T21:57:40.031Z,100419.97
2022-12-12T22:00:42.627Z,100425.03
2022-12-12T22:03:46.080Z,100425.88
2022-12-12T22:06:48.007Z,100425.06
2022-12-12T22:09:57.433Z,100419.25
2022-12-12T22:13:11.553Z,100413.44
2022-12-12T22:16:18.034Z,100405.00
2022-12-12T22:19:19.853Z,100407.47
2022-12-12T22:22:21.473Z,100406.63
2022-12-12T22:25:23.087Z,100412.50
2022-12-12T22:28:24.906Z,100414.19
2022-12-12T22:31:29.971Z,100413.34
2022-12-12T22:34:31.606Z,100406.69
2022-12-12T22:37:33.283Z,100411.78
2022-12-12T22:40:34.956Z,100400.06
2022-12-12T22:43:36.877Z,100400.97
2022-12-12T22:46:43.716Z,100399.31
2022-12-12T22:49:45.996Z,100397.59
2022-12-12T22:52:47.675Z,100402.66
2022-12-12T22:55:49.388Z,100392.63
2022-12-12T22:58:52.067Z,100391.00
2022-12-12T23:01:53.922Z,100396.91
2022-12-12T23:04:55.793Z,100386.88
2022-12-12T23:07:57.968Z,100386.06
2022-12-12T23:11:16.727Z,100391.91
2022-12-12T23:14:22.733Z,100390.13
2022-12-12T23:17:24.453Z,100388.50
2022-12-12T23:20:26.091Z,100389.34
2022-12-12T23:23:31.481Z,100386.81
2022-12-12T23:26:35.716Z,100392.72
2022-12-12T23:29:37.560Z,100396.91
2022-12-12T23:32:39.250Z,100399.44
2022-12-12T23:35:46.889Z,100396.06
2022-12-12T23:38:48.725Z,100391.91
2022-12-12T23:41:50.702Z,100389.41
2022-12-12T23:44:52.332Z,100384.38
2022-12-12T23:47:54.358Z,100387.78
2022-12-12T23:50:56.022Z,100382.78
2022-12-12T23:53:59.441Z,100386.94
2022-12-12T23:57:01.888Z,100388.63
